Time,TemperatureF,DewpointF,PressureIn,WindDirection,WindDirectionDegrees,WindSpeedMPH,WindSpeedGustMPH,Humidity,HourlyPrecipIn,Conditions,Clouds,dailyrainin,SolarRadiationWatts/m^2,SoftwareType,DateUTC
2013-08-26 00:05:00,66.2,58.0,30.07,SE,142,0.0,3.0,75,0.00,,,0.00,0,weatherlink.com 1.10,2013-08-26 04:05:00,
2013-08-26 00:20:00,66.1,58.0,30.07,SE,132,0.0,3.0,75,0.00,,,0.00,0,weatherlink.com 1.10,2013-08-26 04:20:00,
2013-08-26 00:35:00,65.8,58.0,30.07,South,186,0.0,1.0,75,0.00,,,0.00,0,weatherlink.com 1.10,2013-08-26 04:35:00,
2013-08-26 00:50:00,65.1,58.0,30.08,SW,236,0.0,4.0,79,0.00,,,0.00,0,weatherlink.com 1.10,2013-08-26 04:50:00,
2013-08-26 01:05:00,63.9,59.0,30.10,SW,231,0.0,3.0,85,0.02,,,0.02,0,weatherlink.com 1.10,2013-08-26 05:05:00,
2013-08-26 01:21:00,63.1,60.0,30.09,SW,231,0.0,1.0,88,0.04,,,0.05,0,weatherlink.com 1.10,2013-08-26 05:21:00,
2013-08-26 01:36:00,62.9,60.0,30.08,SSW,200,0.0,3.0,90,0.06,,,0.06,0,weatherlink.com 1.10,2013-08-26 05:36:00,
2013-08-26 01:51:00,63.1,61.0,30.05,SSE,159,0.0,4.0,91,0.10,,,0.11,0,weatherlink.com 1.10,2013-08-26 05:51:00,
2013-08-26 02:06:00,63.2,61.0,30.04,SE,128,0.0,5.0,92,0.10,,,0.12,0,weatherlink.com 1.10,2013-08-26 06:06:00,
2013-08-26 02:21:00,63.4,61.0,30.03,SE,146,0.0,5.0,92,0.08,,,0.13,0,weatherlink.com 1.10,2013-08-26 06:21:00,
2013-08-26 02:36:00,63.4,61.0,30.02,SSE,147,0.0,9.0,92,0.06,,,0.13,0,weatherlink.com 1.10,2013-08-26 06:36:00,
2013-08-26 02:51:00,63.1,61.0,30.02,WSW,240,0.0,6.0,93,0.02,,,0.13,0,weatherlink.com 1.10,2013-08-26 06:51:00,
2013-08-26 03:06:00,63.0,61.0,30.02,SW,229,2.0,7.0,92,0.03,,,0.15,0,weatherlink.com 1.10,2013-08-26 07:06:00,
2013-08-26 03:21:00,62.9,61.0,30.02,SW,234,1.0,5.0,93,0.04,,,0.17,0,weatherlink.com 1.10,2013-08-26 07:21:00,
2013-08-26 03:36:00,62.9,61.0,30.01,WSW,242,2.0,6.0,93,0.04,,,0.17,0,weatherlink.com 1.10,2013-08-26 07:36:00,
2013-08-26 03:51:00,62.8,61.0,30.00,SW,232,3.0,5.0,93,0.05,,,0.18,0,weatherlink.com 1.10,2013-08-26 07:51:00,
2013-08-26 04:06:00,62.8,61.0,30.01,SW,236,3.0,5.0,93,0.03,,,0.18,0,weatherlink.com 1.10,2013-08-26 08:06:00,
2013-08-26 04:21:00,62.8,61.0,30.00,WSW,257,3.0,3.0,93,0.02,,,0.19,0,weatherlink.com 1.10,2013-08-26 08:21:00,
2013-08-26 04:36:00,62.8,61.0,30.00,SW,236,0.0,5.0,93,0.02,,,0.19,0,weatherlink.com 1.10,2013-08-26 08:36:00,
2013-08-26 04:51:00,62.7,61.0,29.99,SW,232,2.0,6.0,93,0.02,,,0.20,0,weatherlink.com 1.10,2013-08-26 08:51:00,
2013-08-26 05:06:00,62.8,61.0,29.98,WSW,243,2.0,6.0,94,0.02,,,0.20,0,weatherlink.com 1.10,2013-08-26 09:06:00,
2013-08-26 05:21:00,62.7,61.0,29.98,SW,229,0.0,4.0,94,0.01,,,0.20,0,weatherlink.com 1.10,2013-08-26 09:21:00,
2013-08-26 05:36:00,62.8,61.0,29.98,WSW,239,1.0,5.0,94,0.01,,,0.20,0,weatherlink.com 1.10,2013-08-26 09:36:00,
2013-08-26 05:51:00,62.8,61.0,29.98,SW,224,1.0,8.0,94,0.00,,,0.20,0,weatherlink.com 1.10,2013-08-26 09:51:00,
2013-08-26 06:06:00,62.8,61.0,29.98,SW,233,1.0,6.0,93,0.00,,,0.20,0,weatherlink.com 1.10,2013-08-26 10:06:00,
2013-08-26 06:21:00,62.9,61.0,29.98,WSW,245,0.0,5.0,93,0.00,,,0.20,0,weatherlink.com 1.10,2013-08-26 10:21:00,
2013-08-26 06:36:00,62.9,61.0,29.98,WSW,238,0.0,4.0,93,0.00,,,0.20,0,weatherlink.com 1.10,2013-08-26 10:36:00,
2013-08-26 06:51:00,62.9,61.0,29.98,SW,234,0.0,3.0,93,0.00,,,0.20,0,weatherlink.com 1.10,2013-08-26 10:51:00,
2013-08-26 07:06:00,63.0,61.0,29.98,SW,236,0.0,3.0,93,0.00,,,0.20,5,weatherlink.com 1.10,2013-08-26 11:06:00,
2013-08-26 07:21:00,63.1,61.0,29.97,WSW,238,4.0,5.0,93,0.00,,,0.20,7,weatherlink.com 1.10,2013-08-26 11:21:00,
2013-08-26 07:36:00,63.1,61.0,29.98,SW,230,0.0,5.0,93,0.00,,,0.20,7,weatherlink.com 1.10,2013-08-26 11:36:00,
2013-08-26 07:51:00,63.2,61.0,29.98,WSW,247,0.0,4.0,93,0.00,,,0.20,9,weatherlink.com 1.10,2013-08-26 11:51:00,
2013-08-26 08:06:00,63.3,61.0,29.97,SW,232,0.0,4.0,93,0.00,,,0.20,33,weatherlink.com 1.10,2013-08-26 12:06:00,
2013-08-26 08:21:00,63.5,61.0,29.96,West,278,0.0,3.0,92,0.00,,,0.20,33,weatherlink.com 1.10,2013-08-26 12:21:00,
2013-08-26 08:36:00,63.6,61.0,29.96,SW,234,6.0,6.0,92,0.00,,,0.20,25,weatherlink.com 1.10,2013-08-26 12:36:00,
2013-08-26 08:51:00,63.8,62.0,29.97,WSW,239,0.0,6.0,92,0.00,,,0.20,23,weatherlink.com 1.10,2013-08-26 12:51:00,
2013-08-26 09:06:00,64.0,61.0,29.96,WSW,243,0.0,3.0,91,0.00,,,0.20,30,weatherlink.com 1.10,2013-08-26 13:06:00,
2013-08-26 09:21:00,64.1,62.0,29.95,West,259,0.0,3.0,91,0.00,,,0.20,56,weatherlink.com 1.10,2013-08-26 13:21:00,
2013-08-26 09:36:00,64.5,62.0,29.95,WSW,250,0.0,3.0,91,0.00,,,0.20,76,weatherlink.com 1.10,2013-08-26 13:36:00,
2013-08-26 09:51:00,65.2,63.0,29.96,SW,226,0.0,4.0,91,0.00,,,0.20,156,weatherlink.com 1.10,2013-08-26 13:51:00,
2013-08-26 10:06:00,65.9,63.0,29.95,SW,234,2.0,5.0,90,0.00,,,0.20,86,weatherlink.com 1.10,2013-08-26 14:06:00,
2013-08-26 10:21:00,66.0,63.0,29.95,SE,136,0.0,4.0,89,0.00,,,0.20,77,weatherlink.com 1.10,2013-08-26 14:21:00,
2013-08-26 10:36:00,66.2,63.0,29.95,SW,221,0.0,3.0,89,0.00,,,0.20,90,weatherlink.com 1.10,2013-08-26 14:36:00,
2013-08-26 10:51:00,66.4,63.0,29.95,SW,235,0.0,3.0,89,0.00,,,0.20,62,weatherlink.com 1.10,2013-08-26 14:51:00,
2013-08-26 11:07:00,66.6,63.0,29.94,ESE,123,0.0,6.0,89,0.00,,,0.20,67,weatherlink.com 1.10,2013-08-26 15:07:00,
2013-08-26 11:22:00,66.7,63.0,29.94,NW,313,0.0,3.0,89,0.00,,,0.20,72,weatherlink.com 1.10,2013-08-26 15:22:00,
2013-08-26 11:37:00,66.8,64.0,29.93,SSE,154,0.0,3.0,89,0.00,,,0.20,77,weatherlink.com 1.10,2013-08-26 15:37:00,
2013-08-26 11:52:00,67.2,64.0,29.93,SE,126,0.0,4.0,88,0.00,,,0.20,70,weatherlink.com 1.10,2013-08-26 15:52:00,
2013-08-26 12:07:00,67.5,64.0,29.93,WSW,241,1.0,4.0,88,0.00,,,0.20,53,weatherlink.com 1.10,2013-08-26 16:07:00,
2013-08-26 12:22:00,67.6,64.0,29.93,WSW,241,0.0,1.0,88,0.00,,,0.20,127,weatherlink.com 1.10,2013-08-26 16:22:00,
2013-08-26 12:37:00,68.5,65.0,29.92,WSW,242,0.0,2.0,88,0.00,,,0.20,204,weatherlink.com 1.10,2013-08-26 16:37:00,
2013-08-26 12:52:00,69.4,65.0,29.92,WSW,255,2.0,4.0,86,0.00,,,0.20,381,weatherlink.com 1.10,2013-08-26 16:52:00,
2013-08-26 13:07:00,70.4,65.0,29.91,SW,234,2.0,5.0,84,0.00,,,0.20,304,weatherlink.com 1.10,2013-08-26 17:07:00,
2013-08-26 13:22:00,71.3,66.0,29.91,SW,223,3.0,7.0,83,0.00,,,0.20,244,weatherlink.com 1.10,2013-08-26 17:22:00,
2013-08-26 13:37:00,71.7,66.0,29.90,SW,236,0.0,5.0,83,0.00,,,0.20,213,weatherlink.com 1.10,2013-08-26 17:37:00,
2013-08-26 13:52:00,71.9,67.0,29.90,SSW,200,0.0,4.0,83,0.00,,,0.20,186,weatherlink.com 1.10,2013-08-26 17:52:00,
2013-08-26 14:07:00,71.9,67.0,29.90,SW,235,0.0,4.0,83,0.00,,,0.20,135,weatherlink.com 1.10,2013-08-26 18:07:00,
2013-08-26 14:22:00,71.8,67.0,29.89,SW,233,0.0,4.0,84,0.00,,,0.20,93,weatherlink.com 1.10,2013-08-26 18:22:00,
2013-08-26 14:37:00,71.4,66.0,29.89,SW,236,0.0,4.0,84,0.00,,,0.20,86,weatherlink.com 1.10,2013-08-26 18:37:00,
2013-08-26 14:52:00,71.2,66.0,29.88,SE,140,0.0,3.0,84,0.00,,,0.20,53,weatherlink.com 1.10,2013-08-26 18:52:00,
2013-08-26 15:07:00,70.9,66.0,29.88,SSW,205,0.0,1.0,85,0.00,,,0.20,67,weatherlink.com 1.10,2013-08-26 19:07:00,
2013-08-26 15:22:00,70.8,66.0,29.87,SE,134,0.0,2.0,85,0.00,,,0.20,47,weatherlink.com 1.10,2013-08-26 19:22:00,
2013-08-26 15:37:00,70.5,66.0,29.87,SE,138,0.0,2.0,85,0.00,,,0.20,32,weatherlink.com 1.10,2013-08-26 19:37:00,
2013-08-26 15:52:00,70.4,66.0,29.87,SSE,151,0.0,3.0,86,0.00,,,0.20,47,weatherlink.com 1.10,2013-08-26 19:52:00,
2013-08-26 16:07:00,70.5,66.0,29.87,SSE,151,0.0,1.0,86,0.00,,,0.20,44,weatherlink.com 1.10,2013-08-26 20:07:00,
2013-08-26 16:22:00,70.5,66.0,29.86,SSE,147,0.0,3.0,86,0.00,,,0.20,63,weatherlink.com 1.10,2013-08-26 20:22:00,
2013-08-26 16:37:00,70.7,66.0,29.86,SSE,159,0.0,3.0,85,0.00,,,0.20,56,weatherlink.com 1.10,2013-08-26 20:37:00,
2013-08-26 16:52:00,70.8,67.0,29.85,SSE,157,0.0,2.0,86,0.00,,,0.20,35,weatherlink.com 1.10,2013-08-26 20:52:00,
2013-08-26 17:07:00,70.9,67.0,29.85,SSE,158,0.0,2.0,86,0.00,,,0.20,70,weatherlink.com 1.10,2013-08-26 21:07:00,
2013-08-26 17:22:00,70.8,67.0,29.85,SSE,149,0.0,4.0,86,0.00,,,0.20,30,weatherlink.com 1.10,2013-08-26 21:22:00,
2013-08-26 17:37:00,70.8,67.0,29.85,SW,225,0.0,2.0,87,0.00,,,0.20,23,weatherlink.com 1.10,2013-08-26 21:37:00,
2013-08-26 17:52:00,70.7,67.0,29.85,SW,225,0.0,1.0,87,0.00,,,0.20,33,weatherlink.com 1.10,2013-08-26 21:52:00,
2013-08-26 18:07:00,70.6,67.0,29.85,South,189,0.0,2.0,87,0.00,,,0.20,32,weatherlink.com 1.10,2013-08-26 22:07:00,
2013-08-26 18:22:00,70.6,67.0,29.85,South,189,0.0,1.0,87,0.00,,,0.20,12,weatherlink.com 1.10,2013-08-26 22:22:00,
2013-08-26 18:37:00,70.7,66.0,29.85,SW,236,0.0,1.0,86,0.00,,,0.20,16,weatherlink.com 1.10,2013-08-26 22:37:00,
2013-08-26 18:52:00,70.8,67.0,29.85,SW,236,0.0,1.0,86,0.00,,,0.20,12,weatherlink.com 1.10,2013-08-26 22:52:00,
2013-08-26 19:07:00,70.7,66.0,29.84,SW,236,0.0,1.0,86,0.00,,,0.20,5,weatherlink.com 1.10,2013-08-26 23:07:00,
2013-08-26 19:22:00,70.9,67.0,29.84,SW,236,0.0,0.0,86,0.00,,,0.20,0,weatherlink.com 1.10,2013-08-26 23:22:00,
2013-08-26 19:37:00,70.5,67.0,29.84,SW,236,0.0,0.0,87,0.00,,,0.20,0,weatherlink.com 1.10,2013-08-26 23:37:00,
2013-08-26 19:52:00,70.2,67.0,29.84,SW,236,0.0,0.0,88,0.00,,,0.20,0,weatherlink.com 1.10,2013-08-26 23:52:00,
2013-08-26 20:07:00,70.1,67.0,29.84,SW,236,0.0,0.0,89,0.00,,,0.20,0,weatherlink.com 1.10,2013-08-27 00:07:00,
2013-08-26 20:22:00,69.4,66.0,29.84,SW,236,0.0,0.0,90,0.00,,,0.20,0,weatherlink.com 1.10,2013-08-27 00:22:00,
2013-08-26 20:37:00,69.1,66.0,29.85,SW,236,0.0,0.0,91,0.00,,,0.20,0,weatherlink.com 1.10,2013-08-27 00:37:00,
2013-08-26 20:52:00,69.1,67.0,29.85,SW,236,0.0,0.0,92,0.00,,,0.20,0,weatherlink.com 1.10,2013-08-27 00:52:00,
2013-08-26 21:07:00,69.0,67.0,29.85,SW,236,0.0,0.0,92,0.00,,,0.20,0,weatherlink.com 1.10,2013-08-27 01:07:00,
2013-08-26 21:22:00,69.0,67.0,29.85,SW,236,0.0,1.0,93,0.00,,,0.20,0,weatherlink.com 1.10,2013-08-27 01:22:00,
2013-08-26 21:37:00,69.1,67.0,29.86,SW,236,0.0,0.0,93,0.00,,,0.20,0,weatherlink.com 1.10,2013-08-27 01:37:00,
2013-08-26 21:52:00,69.2,67.0,29.86,SW,236,0.0,0.0,93,0.00,,,0.20,0,weatherlink.com 1.10,2013-08-27 01:52:00,
2013-08-26 22:07:00,69.2,67.0,29.86,SW,236,0.0,0.0,93,0.00,,,0.20,0,weatherlink.com 1.10,2013-08-27 02:07:00,
2013-08-26 22:22:00,69.0,67.0,29.86,SW,236,0.0,0.0,93,0.00,,,0.20,0,weatherlink.com 1.10,2013-08-27 02:22:00,
2013-08-26 22:37:00,69.2,67.0,29.86,SW,236,0.0,0.0,93,0.00,,,0.20,0,weatherlink.com 1.10,2013-08-27 02:37:00,
2013-08-26 22:52:00,69.4,68.0,29.85,SW,236,0.0,1.0,94,0.00,,,0.20,0,weatherlink.com 1.10,2013-08-27 02:52:00,
2013-08-26 23:07:00,69.5,68.0,29.85,SW,236,0.0,1.0,94,0.00,,,0.20,0,weatherlink.com 1.10,2013-08-27 03:07:00,
2013-08-26 23:22:00,69.5,68.0,29.85,SW,236,0.0,1.0,94,0.00,,,0.20,0,weatherlink.com 1.10,2013-08-27 03:22:00,
2013-08-26 23:37:00,69.6,68.0,29.85,SW,236,0.0,0.0,94,0.00,,,0.20,0,weatherlink.com 1.10,2013-08-27 03:37:00,
2013-08-26 23:52:00,69.7,68.0,29.85,SW,236,0.0,0.0,94,0.00,,,0.20,0,weatherlink.com 1.10,2013-08-27 03:52:00,